Time,TemperatureF,DewpointF,PressureIn,WindDirection,WindDirectionDegrees,WindSpeedMPH,WindSpeedGustMPH,Humidity,HourlyPrecipIn,Conditions,Clouds,dailyrainin,SoftwareType,DateUTC
2013-08-30 00:00:00,80.3,74.7,29.45,ENE,77,0.0,1.0,83,0.00,,,0.00,Wunderground v.1.15,2013-08-30 05:00:00,
2013-08-30 00:09:00,-999.9,-99.9,29.45,ENE,77,0.0,1.0,83,0.00,,,0.00,Wunderground v.1.15,2013-08-30 05:09:00,
2013-08-30 00:15:00,80.2,74.6,29.45,ENE,78,0.0,0.0,83,0.00,,,0.00,Wunderground v.1.15,2013-08-30 05:15:00,
2013-08-30 00:20:00,80.1,74.5,29.45,ENE,78,0.0,0.0,83,0.00,,,0.00,Wunderground v.1.15,2013-08-30 05:20:00,
2013-08-30 00:26:00,80.2,74.6,29.45,East,79,0.0,3.0,83,0.00,,,0.00,Wunderground v.1.15,2013-08-30 05:26:00,
2013-08-30 00:31:00,80.2,74.6,29.45,East,79,0.0,0.0,83,0.00,,,0.00,Wunderground v.1.15,2013-08-30 05:31:00,
2013-08-30 00:36:00,80.2,74.6,29.45,East,79,0.0,0.0,83,0.00,,,0.00,Wunderground v.1.15,2013-08-30 05:36:00,
2013-08-30 00:42:00,80.2,74.6,29.45,East,79,0.0,0.0,83,0.00,,,0.00,Wunderground v.1.15,2013-08-30 05:42:00,
2013-08-30 00:47:00,80.2,74.6,29.45,East,79,0.0,0.0,83,0.00,,,0.00,Wunderground v.1.15,2013-08-30 05:47:00,
2013-08-30 00:52:00,80.2,74.6,29.45,East,79,0.0,0.0,83,0.00,,,0.00,Wunderground v.1.15,2013-08-30 05:52:00,
2013-08-30 00:57:00,80.1,74.5,29.45,East,79,0.0,0.0,83,0.00,,,0.00,Wunderground v.1.15,2013-08-30 05:57:00,
2013-08-30 01:03:00,80.1,74.5,29.45,East,79,0.0,0.0,83,0.00,,,0.00,Wunderground v.1.15,2013-08-30 06:03:00,
2013-08-30 01:08:00,80.1,74.1,29.45,East,79,0.0,1.0,82,0.00,,,0.00,Wunderground v.1.15,2013-08-30 06:08:00,
2013-08-30 01:14:00,80.0,74.0,29.45,East,79,0.0,0.0,82,0.00,,,0.00,Wunderground v.1.15,2013-08-30 06:14:00,
2013-08-30 01:19:00,80.0,74.0,29.45,East,79,0.0,2.0,82,0.00,,,0.00,Wunderground v.1.15,2013-08-30 06:19:00,
2013-08-30 01:24:00,79.9,73.9,29.45,East,79,0.0,0.0,82,0.00,,,0.00,Wunderground v.1.15,2013-08-30 06:24:00,
2013-08-30 01:30:00,79.8,73.8,29.45,East,79,0.0,0.0,82,0.00,,,0.00,Wunderground v.1.15,2013-08-30 06:30:00,
2013-08-30 01:42:00,79.4,73.8,29.45,East,79,0.0,0.0,83,0.00,,,0.00,Wunderground v.1.15,2013-08-30 06:42:00,
2013-08-30 01:48:00,79.4,73.4,29.45,East,79,0.0,0.0,82,0.00,,,0.00,Wunderground v.1.15,2013-08-30 06:48:00,
2013-08-30 01:53:00,79.6,73.6,29.44,East,84,0.0,0.0,82,0.00,,,0.00,Wunderground v.1.15,2013-08-30 06:53:00,
2013-08-30 01:59:00,79.6,73.6,29.45,East,84,0.0,0.0,82,0.00,,,0.00,Wunderground v.1.15,2013-08-30 06:59:00,
2013-08-30 02:04:00,79.7,73.7,29.44,East,84,0.0,0.0,82,0.00,,,0.00,Wunderground v.1.15,2013-08-30 07:04:00,
2013-08-30 02:09:00,79.6,73.6,29.44,East,84,0.0,0.0,82,0.00,,,0.00,Wunderground v.1.15,2013-08-30 07:09:00,
2013-08-30 02:15:00,79.4,73.4,29.44,East,84,0.0,0.0,82,0.00,,,0.00,Wunderground v.1.15,2013-08-30 07:15:00,
2013-08-30 02:20:00,79.4,73.4,29.44,East,84,0.0,0.0,82,0.00,,,0.00,Wunderground v.1.15,2013-08-30 07:20:00,
2013-08-30 02:25:00,79.4,73.1,29.44,East,84,0.0,2.0,81,0.00,,,0.00,Wunderground v.1.15,2013-08-30 07:25:00,
2013-08-30 02:31:00,79.4,73.1,29.44,East,84,0.0,0.0,81,0.00,,,0.00,Wunderground v.1.15,2013-08-30 07:31:00,
2013-08-30 02:36:00,79.8,73.4,29.44,East,84,0.0,0.0,81,0.00,,,0.00,Wunderground v.1.15,2013-08-30 07:36:00,
2013-08-30 02:41:00,79.4,73.1,29.44,East,85,0.0,0.0,81,0.00,,,0.00,Wunderground v.1.15,2013-08-30 07:41:00,
2013-08-30 02:47:00,79.4,72.7,29.44,East,84,0.0,0.0,80,0.00,,,0.00,Wunderground v.1.15,2013-08-30 07:47:00,
2013-08-30 02:52:00,79.4,72.7,29.44,East,84,0.0,0.0,80,0.00,,,0.00,Wunderground v.1.15,2013-08-30 07:52:00,
2013-08-30 02:57:00,79.3,72.6,29.44,East,84,0.0,0.0,80,0.00,,,0.00,Wunderground v.1.15,2013-08-30 07:57:00,
2013-08-30 03:03:00,79.3,73.0,29.44,East,84,0.0,0.0,81,0.00,,,0.00,Wunderground v.1.15,2013-08-30 08:03:00,
2013-08-30 03:19:00,78.4,72.4,29.44,East,84,0.0,0.0,82,0.00,,,0.00,Wunderground v.1.15,2013-08-30 08:19:00,
2013-08-30 03:24:00,78.0,72.4,29.44,East,84,0.0,0.0,83,0.00,,,0.00,Wunderground v.1.15,2013-08-30 08:24:00,
2013-08-30 03:30:00,77.7,72.1,29.44,East,84,0.0,0.0,83,0.00,,,0.00,Wunderground v.1.15,2013-08-30 08:30:00,
2013-08-30 03:35:00,77.4,72.2,29.44,East,84,0.0,0.0,84,0.00,,,0.00,Wunderground v.1.15,2013-08-30 08:35:00,
2013-08-30 03:40:00,77.3,72.1,29.44,East,84,0.0,0.0,84,0.00,,,0.00,Wunderground v.1.15,2013-08-30 08:40:00,
2013-08-30 03:46:00,77.3,72.4,29.44,East,84,0.0,2.0,85,0.00,,,0.00,Wunderground v.1.15,2013-08-30 08:46:00,
2013-08-30 03:51:00,77.5,71.9,29.44,East,84,1.0,3.0,83,0.00,,,0.00,Wunderground v.1.15,2013-08-30 08:51:00,
2013-08-30 03:56:00,77.6,72.4,29.44,East,84,0.0,3.0,84,0.00,,,0.00,Wunderground v.1.15,2013-08-30 08:56:00,
2013-08-30 04:02:00,77.5,72.3,29.44,East,84,0.0,0.0,84,0.00,,,0.00,Wunderground v.1.15,2013-08-30 09:02:00,
2013-08-30 04:07:00,77.4,72.2,29.44,East,84,0.0,0.0,84,0.00,,,0.00,Wunderground v.1.15,2013-08-30 09:07:00,
2013-08-30 04:25:00,76.9,72.0,29.44,East,84,0.0,0.0,85,0.00,,,0.00,Wunderground v.1.15,2013-08-30 09:25:00,
2013-08-30 04:31:00,76.9,-99.9,29.44,East,84,0.0,0.0,255,0.00,,,0.00,Wunderground v.1.15,2013-08-30 09:31:00,
2013-08-30 04:36:00,76.7,71.8,29.44,East,84,0.0,0.0,85,0.00,,,0.00,Wunderground v.1.15,2013-08-30 09:36:00,
2013-08-30 04:41:00,76.6,72.1,29.44,East,84,0.0,0.0,86,0.00,,,0.00,Wunderground v.1.15,2013-08-30 09:41:00,
2013-08-30 04:47:00,76.4,71.9,29.44,East,84,0.0,0.0,86,0.00,,,0.00,Wunderground v.1.15,2013-08-30 09:47:00,
2013-08-30 04:52:00,76.3,71.8,29.44,East,85,0.0,0.0,86,0.00,,,0.00,Wunderground v.1.15,2013-08-30 09:52:00,
2013-08-30 04:57:00,76.2,71.7,29.44,East,84,0.0,0.0,86,0.00,,,0.00,Wunderground v.1.15,2013-08-30 09:57:00,
2013-08-30 05:03:00,76.1,71.6,29.43,East,84,0.0,2.0,86,0.00,,,0.00,Wunderground v.1.15,2013-08-30 10:03:00,
2013-08-30 05:08:00,76.0,71.5,29.43,East,84,0.0,2.0,86,0.00,,,0.00,Wunderground v.1.15,2013-08-30 10:08:00,
2013-08-30 05:13:00,76.0,71.5,29.43,East,84,0.0,0.0,86,0.00,,,0.00,Wunderground v.1.15,2013-08-30 10:13:00,
2013-08-30 05:19:00,76.0,71.5,29.43,East,84,0.0,1.0,86,0.00,,,0.00,Wunderground v.1.15,2013-08-30 10:19:00,
2013-08-30 05:24:00,76.0,71.5,29.43,East,85,0.0,4.0,86,0.00,,,0.00,Wunderground v.1.15,2013-08-30 10:24:00,
2013-08-30 05:34:00,75.9,71.4,29.43,East,84,0.0,0.0,86,0.00,,,0.00,Wunderground v.1.15,2013-08-30 10:34:00,
2013-08-30 05:40:00,75.9,71.4,29.43,East,84,0.0,1.0,86,0.00,,,0.00,Wunderground v.1.15,2013-08-30 10:40:00,
2013-08-30 05:45:00,75.8,71.3,29.43,East,85,0.0,3.0,86,0.00,,,0.00,Wunderground v.1.15,2013-08-30 10:45:00,
2013-08-30 05:51:00,75.7,71.2,29.43,East,84,0.0,0.0,86,0.00,,,0.00,Wunderground v.1.15,2013-08-30 10:51:00,
2013-08-30 05:56:00,75.5,71.0,29.43,East,84,0.0,1.0,86,0.00,,,0.00,Wunderground v.1.15,2013-08-30 10:56:00,
2013-08-30 06:01:00,75.5,71.0,29.43,East,85,0.0,4.0,86,0.00,,,0.00,Wunderground v.1.15,2013-08-30 11:01:00,
2013-08-30 06:07:00,75.4,70.9,29.43,East,84,0.0,4.0,86,0.00,,,0.00,Wunderground v.1.15,2013-08-30 11:07:00,
2013-08-30 06:12:00,75.4,70.9,29.43,East,84,0.0,0.0,86,0.00,,,0.00,Wunderground v.1.15,2013-08-30 11:12:00,
2013-08-30 06:17:00,75.3,70.8,29.43,East,84,0.0,0.0,86,0.00,,,0.00,Wunderground v.1.15,2013-08-30 11:17:00,
2013-08-30 06:22:00,75.2,70.7,29.43,East,84,0.0,0.0,86,0.00,,,0.00,Wunderground v.1.15,2013-08-30 11:22:00,
2013-08-30 06:28:00,75.1,70.6,29.43,East,84,0.0,0.0,86,0.00,,,0.00,Wunderground v.1.15,2013-08-30 11:28:00,
2013-08-30 06:34:00,75.0,70.9,29.43,East,84,0.0,2.0,87,0.00,,,0.00,Wunderground v.1.15,2013-08-30 11:34:00,
2013-08-30 06:40:00,75.0,70.9,29.43,East,84,1.0,2.0,87,0.00,,,0.00,Wunderground v.1.15,2013-08-30 11:40:00,
2013-08-30 06:48:00,75.1,71.0,29.43,East,85,0.0,1.0,87,0.00,,,0.00,Wunderground v.1.15,2013-08-30 11:48:00,
2013-08-30 06:56:00,75.2,71.1,29.43,East,84,0.0,0.0,87,0.00,,,0.00,Wunderground v.1.15,2013-08-30 11:56:00,
2013-08-30 07:02:00,75.3,70.8,29.43,East,95,0.0,4.0,86,0.00,,,0.00,Wunderground v.1.15,2013-08-30 12:02:00,
2013-08-30 07:08:00,75.4,70.9,29.44,East,95,0.0,4.0,86,0.00,,,0.00,Wunderground v.1.15,2013-08-30 12:08:00,
2013-08-30 07:14:00,75.5,71.0,29.44,ESE,111,0.0,2.0,86,0.00,,,0.00,Wunderground v.1.15,2013-08-30 12:14:00,
2013-08-30 07:19:00,75.7,71.2,29.44,SE,128,1.0,6.0,86,0.00,,,0.00,Wunderground v.1.15,2013-08-30 12:19:00,
2013-08-30 07:24:00,75.8,71.3,29.44,SE,132,1.0,2.0,86,0.00,,,0.00,Wunderground v.1.15,2013-08-30 12:24:00,
2013-08-30 07:30:00,75.9,71.1,29.44,SE,136,1.0,4.0,85,0.00,,,0.00,Wunderground v.1.15,2013-08-30 12:30:00,
2013-08-30 07:35:00,76.1,70.9,29.44,SE,136,1.0,4.0,84,0.00,,,0.00,Wunderground v.1.15,2013-08-30 12:35:00,
2013-08-30 07:40:00,76.2,71.4,29.44,SE,137,0.0,0.0,85,0.00,,,0.00,Wunderground v.1.15,2013-08-30 12:40:00,
2013-08-30 07:46:00,76.5,-99.9,29.44,SE,146,1.0,6.0,255,0.00,,,0.00,Wunderground v.1.15,2013-08-30 12:46:00,
2013-08-30 07:51:00,76.7,71.5,29.44,SSE,150,1.0,1.0,84,0.00,,,0.00,Wunderground v.1.15,2013-08-30 12:51:00,
2013-08-30 07:56:00,77.0,71.8,29.44,SSE,150,1.0,1.0,84,0.00,,,0.00,Wunderground v.1.15,2013-08-30 12:56:00,
2013-08-30 08:18:00,79.1,72.4,29.44,South,178,2.0,4.0,80,0.00,,,0.00,Wunderground v.1.15,2013-08-30 13:18:00,
2013-08-30 08:24:00,79.3,72.6,29.44,South,179,1.0,5.0,80,0.00,,,0.00,Wunderground v.1.15,2013-08-30 13:24:00,
2013-08-30 08:29:00,79.5,72.4,29.44,South,183,1.0,5.0,79,0.00,,,0.00,Wunderground v.1.15,2013-08-30 13:29:00,
2013-08-30 08:35:00,79.8,72.7,29.44,South,183,1.0,2.0,79,0.00,,,0.00,Wunderground v.1.15,2013-08-30 13:35:00,
2013-08-30 08:40:00,80.2,72.7,29.44,SSW,192,1.0,6.0,78,0.00,,,0.00,Wunderground v.1.15,2013-08-30 13:40:00,
2013-08-30 08:45:00,81.1,73.2,29.44,SSW,192,1.0,2.0,77,0.00,,,0.00,Wunderground v.1.15,2013-08-30 13:45:00,
2013-08-30 08:50:00,-999.9,-99.9,29.44,SSW,192,1.0,2.0,77,0.00,,,0.00,Wunderground v.1.15,2013-08-30 13:50:00,
2013-08-30 08:56:00,81.6,72.9,29.44,SSW,192,0.0,5.0,75,0.00,,,0.00,Wunderground v.1.15,2013-08-30 13:56:00,
2013-08-30 09:01:00,82.5,73.8,29.44,SSW,192,0.0,1.0,75,0.00,,,0.00,Wunderground v.1.15,2013-08-30 14:01:00,
2013-08-30 09:07:00,82.8,73.7,29.44,SSW,193,0.0,3.0,74,0.00,,,0.00,Wunderground v.1.15,2013-08-30 14:07:00,
2013-08-30 09:13:00,83.4,73.4,29.44,SSW,193,1.0,1.0,72,0.00,,,0.00,Wunderground v.1.15,2013-08-30 14:13:00,
2013-08-30 09:18:00,83.8,73.4,29.44,SSW,196,1.0,2.0,71,0.00,,,0.00,Wunderground v.1.15,2013-08-30 14:18:00,
2013-08-30 09:23:00,84.1,73.3,29.43,SSW,198,1.0,1.0,70,0.00,,,0.00,Wunderground v.1.15,2013-08-30 14:23:00,
2013-08-30 09:29:00,-999.9,-99.9,29.43,SSW,199,0.0,1.0,70,0.00,,,0.00,Wunderground v.1.15,2013-08-30 14:29:00,
2013-08-30 09:38:00,85.1,72.9,29.43,SSW,203,2.0,5.0,67,0.00,,,0.00,Wunderground v.1.15,2013-08-30 14:38:00,
2013-08-30 09:44:00,85.8,73.6,29.43,SW,229,2.0,2.0,67,0.00,,,0.00,Wunderground v.1.15,2013-08-30 14:44:00,
2013-08-30 09:49:00,86.3,74.0,29.43,SW,219,1.0,2.0,67,0.00,,,0.00,Wunderground v.1.15,2013-08-30 14:49:00,
2013-08-30 09:54:00,87.0,74.3,29.43,SW,223,1.0,7.0,66,0.00,,,0.00,Wunderground v.1.15,2013-08-30 14:54:00,
2013-08-30 10:00:00,87.5,74.3,29.43,SW,223,1.0,1.0,65,0.00,,,0.00,Wunderground v.1.15,2013-08-30 15:00:00,
2013-08-30 10:06:00,88.0,73.8,29.43,WSW,244,1.0,6.0,63,0.00,,,0.00,Wunderground v.1.15,2013-08-30 15:06:00,
2013-08-30 10:12:00,88.5,73.8,29.43,WSW,242,1.0,3.0,62,0.00,,,0.00,Wunderground v.1.15,2013-08-30 15:12:00,
2013-08-30 10:17:00,88.8,73.6,29.43,SW,225,1.0,5.0,61,0.00,,,0.00,Wunderground v.1.15,2013-08-30 15:17:00,
2013-08-30 10:22:00,89.2,73.5,29.42,SW,223,2.0,7.0,60,0.00,,,0.00,Wunderground v.1.15,2013-08-30 15:22:00,
2013-08-30 10:28:00,89.6,73.9,29.42,SSW,204,2.0,7.0,60,0.00,,,0.00,Wunderground v.1.15,2013-08-30 15:28:00,
2013-08-30 10:33:00,89.8,73.0,29.42,South,176,3.0,7.0,58,0.00,,,0.00,Wunderground v.1.15,2013-08-30 15:33:00,
2013-08-30 10:38:00,89.7,73.0,29.42,SSE,163,5.0,10.0,58,0.00,,,0.00,Wunderground v.1.15,2013-08-30 15:38:00,
2013-08-30 10:55:00,90.7,72.3,29.42,SSW,196,4.0,5.0,55,0.00,,,0.00,Wunderground v.1.15,2013-08-30 15:55:00,
2013-08-30 11:00:00,91.0,72.6,29.41,SSW,193,4.0,4.0,55,0.00,,,0.00,Wunderground v.1.15,2013-08-30 16:00:00,
2013-08-30 11:06:00,91.4,72.4,29.41,WSW,257,3.0,6.0,54,0.00,,,0.00,Wunderground v.1.15,2013-08-30 16:06:00,
2013-08-30 11:12:00,91.7,72.1,29.41,WSW,241,2.0,5.0,53,0.00,,,0.00,Wunderground v.1.15,2013-08-30 16:12:00,
2013-08-30 11:18:00,92.0,-99.9,29.41,SSW,198,2.0,9.0,255,0.00,,,0.00,Wunderground v.1.15,2013-08-30 16:18:00,
2013-08-30 11:23:00,91.9,72.3,29.41,SW,214,3.0,6.0,53,0.00,,,0.00,Wunderground v.1.15,2013-08-30 16:23:00,
2013-08-30 11:28:00,92.0,72.4,29.41,SW,225,4.0,6.0,53,0.00,,,0.00,Wunderground v.1.15,2013-08-30 16:28:00,
2013-08-30 11:34:00,92.3,72.7,29.41,SW,223,2.0,5.0,53,0.00,,,0.00,Wunderground v.1.15,2013-08-30 16:34:00,
2013-08-30 11:39:00,92.7,-99.9,29.40,SW,232,2.0,7.0,255,0.00,,,0.00,Wunderground v.1.15,2013-08-30 16:39:00,
2013-08-30 11:44:00,92.6,71.2,29.41,SSW,192,4.0,16.0,50,0.00,,,0.00,Wunderground v.1.15,2013-08-30 16:44:00,
2013-08-30 11:50:00,92.6,71.8,29.41,South,186,5.0,9.0,51,0.00,,,0.00,Wunderground v.1.15,2013-08-30 16:50:00,
2013-08-30 11:55:00,92.8,-99.9,29.40,South,173,3.0,9.0,255,0.00,,,0.00,Wunderground v.1.15,2013-08-30 16:55:00,
2013-08-30 12:00:00,93.0,71.6,29.40,South,173,3.0,8.0,50,0.00,,,0.00,Wunderground v.1.15,2013-08-30 17:00:00,
2013-08-30 12:06:00,92.8,72.0,29.40,South,182,4.0,9.0,51,0.00,,,0.00,Wunderground v.1.15,2013-08-30 17:06:00,
2013-08-30 12:11:00,93.0,71.6,29.40,West,268,5.0,8.0,50,0.00,,,0.00,Wunderground v.1.15,2013-08-30 17:11:00,
2013-08-30 12:16:00,93.4,71.4,29.40,West,264,5.0,8.0,49,0.00,,,0.00,Wunderground v.1.15,2013-08-30 17:16:00,
2013-08-30 12:22:00,93.6,71.6,29.40,South,179,3.0,5.0,49,0.00,,,0.00,Wunderground v.1.15,2013-08-30 17:22:00,
2013-08-30 12:27:00,93.7,70.4,29.39,SSW,192,5.0,15.0,47,0.00,,,0.00,Wunderground v.1.15,2013-08-30 17:27:00,
2013-08-30 12:32:00,-999.9,-99.9,29.39,WSW,237,5.0,10.0,47,0.00,,,0.00,Wunderground v.1.15,2013-08-30 17:32:00,
2013-08-30 12:38:00,94.0,70.1,29.39,SSW,200,5.0,13.0,46,0.00,,,0.00,Wunderground v.1.15,2013-08-30 17:38:00,
2013-08-30 12:43:00,94.2,70.9,29.39,SW,234,4.0,4.0,47,0.00,,,0.00,Wunderground v.1.15,2013-08-30 17:43:00,
2013-08-30 12:48:00,94.6,70.0,29.39,West,261,2.0,5.0,45,0.00,,,0.00,Wunderground v.1.15,2013-08-30 17:48:00,
2013-08-30 12:54:00,95.1,69.8,29.39,SSW,205,3.0,3.0,44,0.00,,,0.00,Wunderground v.1.15,2013-08-30 17:54:00,
2013-08-30 12:59:00,95.4,70.7,29.39,SSW,207,3.0,7.0,45,0.00,,,0.00,Wunderground v.1.15,2013-08-30 17:59:00,
2013-08-30 13:04:00,95.3,70.6,29.38,West,276,3.0,8.0,45,0.00,,,0.00,Wunderground v.1.15,2013-08-30 18:04:00,
2013-08-30 13:10:00,-999.9,-99.9,29.39,SSW,212,2.0,3.0,44,0.00,,,0.00,Wunderground v.1.15,2013-08-30 18:10:00,
2013-08-30 13:15:00,96.0,70.6,29.38,SW,234,3.0,7.0,44,0.00,,,0.00,Wunderground v.1.15,2013-08-30 18:15:00,
2013-08-30 13:20:00,96.0,70.6,29.38,NW,311,3.0,3.0,44,0.00,,,0.00,Wunderground v.1.15,2013-08-30 18:20:00,
2013-08-30 13:26:00,96.0,-99.9,29.38,South,186,3.0,9.0,255,0.00,,,0.00,Wunderground v.1.15,2013-08-30 18:26:00,
2013-08-30 13:31:00,96.1,70.7,29.38,SSW,211,3.0,3.0,44,0.00,,,0.00,Wunderground v.1.15,2013-08-30 18:31:00,
2013-08-30 13:36:00,96.2,69.4,29.38,SSW,211,3.0,9.0,42,0.00,,,0.00,Wunderground v.1.15,2013-08-30 18:36:00,
2013-08-30 13:42:00,96.2,69.4,29.38,South,187,3.0,3.0,42,0.00,,,0.00,Wunderground v.1.15,2013-08-30 18:42:00,
2013-08-30 13:47:00,97.2,70.3,29.37,SW,236,3.0,7.0,42,0.00,,,0.00,Wunderground v.1.15,2013-08-30 18:47:00,
2013-08-30 13:52:00,96.8,69.9,29.37,SSW,201,2.0,8.0,42,0.00,,,0.00,Wunderground v.1.15,2013-08-30 18:52:00,
2013-08-30 13:58:00,97.0,70.1,29.37,SSW,207,3.0,8.0,42,0.00,,,0.00,Wunderground v.1.15,2013-08-30 18:58:00,
2013-08-30 14:04:00,96.7,69.8,29.37,SW,214,5.0,9.0,42,0.00,,,0.00,Wunderground v.1.15,2013-08-30 19:04:00,
2013-08-30 14:09:00,96.8,70.6,29.37,West,265,4.0,9.0,43,0.00,,,0.00,Wunderground v.1.15,2013-08-30 19:09:00,
2013-08-30 14:15:00,97.3,70.4,29.37,WSW,257,1.0,5.0,42,0.00,,,0.00,Wunderground v.1.15,2013-08-30 19:15:00,
2013-08-30 14:20:00,97.3,69.7,29.36,SW,217,2.0,4.0,41,0.00,,,0.00,Wunderground v.1.15,2013-08-30 19:20:00,
2013-08-30 14:25:00,97.3,69.7,29.37,SW,221,3.0,6.0,41,0.00,,,0.00,Wunderground v.1.15,2013-08-30 19:25:00,
2013-08-30 14:30:00,97.3,70.4,29.36,WSW,248,3.0,3.0,42,0.00,,,0.00,Wunderground v.1.15,2013-08-30 19:30:00,
2013-08-30 14:36:00,-999.9,-99.9,29.36,South,184,2.0,3.0,40,0.00,,,0.00,Wunderground v.1.15,2013-08-30 19:36:00,
2013-08-30 14:41:00,97.8,70.1,29.36,South,181,2.0,2.0,41,0.00,,,0.00,Wunderground v.1.15,2013-08-30 19:41:00,
2013-08-30 14:46:00,97.9,69.5,29.35,South,180,3.0,7.0,40,0.00,,,0.00,Wunderground v.1.15,2013-08-30 19:46:00,
2013-08-30 14:52:00,98.0,69.6,29.35,WSW,255,4.0,4.0,40,0.00,,,0.00,Wunderground v.1.15,2013-08-30 19:52:00,
2013-08-30 15:01:00,98.0,70.3,29.34,SSW,209,3.0,3.0,41,0.00,,,0.00,Wunderground v.1.15,2013-08-30 20:01:00,
2013-08-30 15:07:00,98.2,69.7,29.34,West,272,3.0,13.0,40,0.00,,,0.00,Wunderground v.1.15,2013-08-30 20:07:00,
2013-08-30 15:12:00,98.7,70.2,29.34,SSW,210,5.0,5.0,40,0.00,,,0.00,Wunderground v.1.15,2013-08-30 20:12:00,
2013-08-30 15:18:00,98.5,70.7,29.35,WSW,249,3.0,5.0,41,0.00,,,0.00,Wunderground v.1.15,2013-08-30 20:18:00,
2013-08-30 15:24:00,98.5,70.0,29.34,SSW,202,2.0,8.0,40,0.00,,,0.00,Wunderground v.1.15,2013-08-30 20:24:00,
2013-08-30 15:29:00,98.6,70.1,29.34,SSW,194,3.0,9.0,40,0.00,,,0.00,Wunderground v.1.15,2013-08-30 20:29:00,
2013-08-30 15:34:00,98.5,70.0,29.34,SW,215,4.0,7.0,40,0.00,,,0.00,Wunderground v.1.15,2013-08-30 20:34:00,
2013-08-30 15:39:00,99.0,69.7,29.34,West,260,2.0,7.0,39,0.00,,,0.00,Wunderground v.1.15,2013-08-30 20:39:00,
2013-08-30 15:45:00,99.2,69.9,29.34,SW,219,1.0,8.0,39,0.00,,,0.00,Wunderground v.1.15,2013-08-30 20:45:00,
2013-08-30 15:50:00,99.1,69.0,29.34,SSW,192,3.0,3.0,38,0.00,,,0.00,Wunderground v.1.15,2013-08-30 20:50:00,
2013-08-30 15:55:00,99.2,69.9,29.34,SW,225,3.0,3.0,39,0.00,,,0.00,Wunderground v.1.15,2013-08-30 20:55:00,
2013-08-30 16:00:00,99.1,69.8,29.33,SSW,192,2.0,3.0,39,0.00,,,0.00,Wunderground v.1.15,2013-08-30 21:00:00,
2013-08-30 16:06:00,99.1,69.0,29.33,SW,233,2.0,4.0,38,0.00,,,0.00,Wunderground v.1.15,2013-08-30 21:06:00,
2013-08-30 16:11:00,99.1,69.0,29.33,SW,229,3.0,8.0,38,0.00,,,0.00,Wunderground v.1.15,2013-08-30 21:11:00,
2013-08-30 16:17:00,98.9,68.9,29.33,South,182,4.0,9.0,38,0.00,,,0.00,Wunderground v.1.15,2013-08-30 21:17:00,
2013-08-30 16:22:00,98.7,68.7,29.33,WSW,246,3.0,3.0,38,0.00,,,0.00,Wunderground v.1.15,2013-08-30 21:22:00,
2013-08-30 16:27:00,98.9,68.1,29.33,WSW,241,2.0,3.0,37,0.00,,,0.00,Wunderground v.1.15,2013-08-30 21:27:00,
2013-08-30 16:33:00,98.8,68.0,29.33,SSW,210,2.0,10.0,37,0.00,,,0.00,Wunderground v.1.15,2013-08-30 21:33:00,
2013-08-30 16:38:00,98.7,67.9,29.33,SW,234,3.0,10.0,37,0.00,,,0.00,Wunderground v.1.15,2013-08-30 21:38:00,
2013-08-30 16:43:00,98.8,68.0,29.33,SW,223,3.0,5.0,37,0.00,,,0.00,Wunderground v.1.15,2013-08-30 21:43:00,
2013-08-30 16:48:00,98.9,68.9,29.32,South,183,2.0,9.0,38,0.00,,,0.00,Wunderground v.1.15,2013-08-30 21:48:00,
2013-08-30 16:54:00,98.8,-99.9,29.32,South,187,3.0,8.0,0,0.00,,,0.00,Wunderground v.1.15,2013-08-30 21:54:00,
2013-08-30 16:59:00,98.5,68.5,29.32,WSW,257,3.0,8.0,38,0.00,,,0.00,Wunderground v.1.15,2013-08-30 21:59:00,
2013-08-30 17:05:00,-999.9,-99.9,29.32,SSW,197,2.0,4.0,255,0.00,,,0.00,Wunderground v.1.15,2013-08-30 22:05:00,
2013-08-30 17:11:00,98.2,69.0,29.32,SSW,192,2.0,6.0,39,0.00,,,0.00,Wunderground v.1.15,2013-08-30 22:11:00,
2013-08-30 17:16:00,98.2,69.0,29.32,SW,219,3.0,7.0,39,0.00,,,0.00,Wunderground v.1.15,2013-08-30 22:16:00,
2013-08-30 17:21:00,98.3,69.1,29.32,SSW,199,2.0,6.0,39,0.00,,,0.00,Wunderground v.1.15,2013-08-30 22:21:00,
2013-08-30 17:27:00,98.1,69.7,29.32,West,273,2.0,6.0,40,0.00,,,0.00,Wunderground v.1.15,2013-08-30 22:27:00,
2013-08-30 17:33:00,98.0,69.6,29.32,WSW,250,2.0,8.0,40,0.00,,,0.00,Wunderground v.1.15,2013-08-30 22:33:00,
2013-08-30 17:51:00,97.5,69.1,29.31,South,179,1.0,1.0,40,0.00,,,0.00,Wunderground v.1.15,2013-08-30 22:51:00,
2013-08-30 17:58:00,97.3,69.7,29.31,SSW,202,2.0,5.0,41,0.00,,,0.00,Wunderground v.1.15,2013-08-30 22:58:00,
2013-08-30 18:04:00,97.2,68.9,29.31,SW,234,1.0,2.0,40,0.00,,,0.00,Wunderground v.1.15,2013-08-30 23:04:00,
2013-08-30 18:09:00,97.1,69.5,29.31,WSW,244,1.0,2.0,41,0.00,,,0.00,Wunderground v.1.15,2013-08-30 23:09:00,
2013-08-30 18:17:00,97.1,69.5,29.31,SW,229,0.0,3.0,41,0.00,,,0.00,Wunderground v.1.15,2013-08-30 23:17:00,
2013-08-30 18:23:00,96.8,69.9,29.31,WSW,246,1.0,1.0,42,0.00,,,0.00,Wunderground v.1.15,2013-08-30 23:23:00,
2013-08-30 18:28:00,96.5,69.7,29.31,SSW,204,1.0,1.0,42,0.00,,,0.00,Wunderground v.1.15,2013-08-30 23:28:00,
2013-08-30 18:33:00,96.1,69.3,29.31,SW,232,0.0,2.0,42,0.00,,,0.00,Wunderground v.1.15,2013-08-30 23:33:00,
2013-08-30 18:39:00,-999.9,-99.9,29.31,SSW,204,0.0,2.0,255,0.00,,,0.00,Wunderground v.1.15,2013-08-30 23:39:00,
2013-08-30 18:44:00,95.6,69.5,29.31,SSW,209,0.0,1.0,43,0.00,,,0.00,Wunderground v.1.15,2013-08-30 23:44:00,
2013-08-30 18:49:00,95.3,69.3,29.30,SW,214,0.0,4.0,43,0.00,,,0.00,Wunderground v.1.15,2013-08-30 23:49:00,
2013-08-30 18:55:00,94.8,69.5,29.30,SW,223,0.0,0.0,44,0.00,,,0.00,Wunderground v.1.15,2013-08-30 23:55:00,
2013-08-30 19:01:00,94.4,69.8,29.30,SW,232,0.0,2.0,45,0.00,,,0.00,Wunderground v.1.15,2013-08-31 00:01:00,
2013-08-30 19:07:00,94.1,69.5,29.30,SSW,200,0.0,2.0,45,0.00,,,0.00,Wunderground v.1.15,2013-08-31 00:07:00,
2013-08-30 19:13:00,93.7,69.2,29.31,SSW,207,0.0,0.0,45,0.00,,,0.00,Wunderground v.1.15,2013-08-31 00:13:00,
2013-08-30 19:18:00,93.5,69.6,29.31,SSW,200,0.0,3.0,46,0.00,,,0.00,Wunderground v.1.15,2013-08-31 00:18:00,
2013-08-30 19:23:00,93.2,-99.9,29.31,SSW,213,0.0,0.0,255,0.00,,,0.00,Wunderground v.1.15,2013-08-31 00:23:00,
2013-08-30 19:29:00,93.5,69.6,29.31,SW,219,0.0,2.0,46,0.00,,,0.00,Wunderground v.1.15,2013-08-31 00:29:00,
2013-08-30 19:34:00,92.6,69.4,29.31,SW,215,0.0,0.0,47,0.00,,,0.00,Wunderground v.1.15,2013-08-31 00:34:00,
2013-08-30 19:39:00,92.1,69.0,29.31,SSW,210,0.0,0.0,47,0.00,,,0.00,Wunderground v.1.15,2013-08-31 00:39:00,
2013-08-30 19:45:00,92.0,68.9,29.31,SSW,213,0.0,0.0,47,0.00,,,0.00,Wunderground v.1.15,2013-08-31 00:45:00,
2013-08-30 19:51:00,91.4,69.0,29.31,SSW,209,0.0,0.0,48,0.00,,,0.00,Wunderground v.1.15,2013-08-31 00:51:00,
2013-08-30 19:57:00,91.1,68.7,29.31,SW,217,0.0,0.0,48,0.00,,,0.00,Wunderground v.1.15,2013-08-31 00:57:00,
2013-08-30 20:02:00,90.8,69.0,29.32,SW,216,0.0,0.0,49,0.00,,,0.00,Wunderground v.1.15,2013-08-31 01:02:00,
2013-08-30 20:07:00,90.6,68.8,29.31,SSW,211,0.0,2.0,49,0.00,,,0.00,Wunderground v.1.15,2013-08-31 01:07:00,
2013-08-30 20:13:00,90.3,68.5,29.32,SSW,212,0.0,0.0,49,0.00,,,0.00,Wunderground v.1.15,2013-08-31 01:13:00,
2013-08-30 20:18:00,90.1,69.0,29.31,SW,218,0.0,0.0,50,0.00,,,0.00,Wunderground v.1.15,2013-08-31 01:18:00,
2013-08-30 20:23:00,89.9,68.8,29.32,SSW,209,0.0,0.0,50,0.00,,,0.00,Wunderground v.1.15,2013-08-31 01:23:00,
2013-08-30 20:29:00,89.7,68.6,29.32,SSW,205,0.0,0.0,50,0.00,,,0.00,Wunderground v.1.15,2013-08-31 01:29:00,
2013-08-30 20:34:00,89.6,69.1,29.32,SSW,209,0.0,0.0,51,0.00,,,0.00,Wunderground v.1.15,2013-08-31 01:34:00,
2013-08-30 20:42:00,89.3,69.4,29.31,SSW,205,0.0,1.0,52,0.00,,,0.00,Wunderground v.1.15,2013-08-31 01:42:00,
2013-08-30 20:47:00,89.2,69.3,29.31,SSW,210,0.0,1.0,52,0.00,,,0.00,Wunderground v.1.15,2013-08-31 01:47:00,
2013-08-30 20:52:00,89.1,69.2,29.31,SSW,202,0.0,0.0,52,0.00,,,0.00,Wunderground v.1.15,2013-08-31 01:52:00,
2013-08-30 20:58:00,88.9,69.6,29.31,South,190,0.0,2.0,53,0.00,,,0.00,Wunderground v.1.15,2013-08-31 01:58:00,
2013-08-30 21:03:00,88.9,69.6,29.31,South,182,0.0,0.0,53,0.00,,,0.00,Wunderground v.1.15,2013-08-31 02:03:00,
2013-08-30 21:09:00,88.4,69.6,29.31,SSW,195,0.0,0.0,54,0.00,,,0.00,Wunderground v.1.15,2013-08-31 02:09:00,
2013-08-30 21:15:00,88.2,69.5,29.31,SSW,200,0.0,0.0,54,0.00,,,0.00,Wunderground v.1.15,2013-08-31 02:15:00,
2013-08-30 21:20:00,88.1,69.4,29.31,SSW,202,0.0,0.0,54,0.00,,,0.00,Wunderground v.1.15,2013-08-31 02:20:00,
2013-08-30 21:26:00,88.0,69.8,29.31,South,187,0.0,0.0,55,0.00,,,0.00,Wunderground v.1.15,2013-08-31 02:26:00,
2013-08-30 21:31:00,87.7,69.5,29.31,SW,217,0.0,5.0,55,0.00,,,0.00,Wunderground v.1.15,2013-08-31 02:31:00,
2013-08-30 21:36:00,-90.0,-97.5,29.31,SSW,200,0.0,5.0,55,0.00,,,0.00,Wunderground v.1.15,2013-08-31 02:36:00,
2013-08-30 21:42:00,87.5,69.3,29.31,South,191,0.0,3.0,55,0.00,,,0.00,Wunderground v.1.15,2013-08-31 02:42:00,
2013-08-30 21:48:00,-90.0,-97.5,29.31,SW,221,1.0,4.0,55,0.00,,,0.00,Wunderground v.1.15,2013-08-31 02:48:00,
2013-08-30 21:54:00,87.4,69.3,29.31,SSW,203,1.0,6.0,55,0.00,,,0.00,Wunderground v.1.15,2013-08-31 02:54:00,
2013-08-30 22:00:00,87.4,69.3,29.31,SSW,204,1.0,1.0,55,0.00,,,0.00,Wunderground v.1.15,2013-08-31 03:00:00,
2013-08-30 22:06:00,87.3,69.7,29.31,South,185,1.0,1.0,56,0.00,,,0.00,Wunderground v.1.15,2013-08-31 03:06:00,
2013-08-30 22:12:00,-90.0,-97.3,29.31,SSW,194,1.0,1.0,56,0.00,,,0.00,Wunderground v.1.15,2013-08-31 03:12:00,
2013-08-30 22:17:00,87.3,69.7,29.31,SW,230,1.0,2.0,56,0.00,,,0.00,Wunderground v.1.15,2013-08-31 03:17:00,
2013-08-30 22:22:00,87.2,69.6,29.31,SSW,207,1.0,7.0,56,0.00,,,0.00,Wunderground v.1.15,2013-08-31 03:22:00,
2013-08-30 22:27:00,87.1,69.5,29.31,South,180,1.0,7.0,56,0.00,,,0.00,Wunderground v.1.15,2013-08-31 03:27:00,
2013-08-30 22:32:00,87.3,69.7,29.31,SSE,165,1.0,1.0,56,0.00,,,0.00,Wunderground v.1.15,2013-08-31 03:32:00,
2013-08-30 22:38:00,86.9,69.3,29.31,SSW,204,1.0,6.0,56,0.00,,,0.00,Wunderground v.1.15,2013-08-31 03:38:00,
2013-08-30 22:44:00,87.0,69.4,29.31,SSW,196,1.0,5.0,56,0.00,,,0.00,Wunderground v.1.15,2013-08-31 03:44:00,
2013-08-30 22:49:00,86.9,69.3,29.31,SW,229,1.0,5.0,56,0.00,,,0.00,Wunderground v.1.15,2013-08-31 03:49:00,
2013-08-30 22:55:00,86.6,69.6,29.31,SSW,210,0.0,1.0,57,0.00,,,0.00,Wunderground v.1.15,2013-08-31 03:55:00,
2013-08-30 23:00:00,86.5,69.5,29.31,SSW,211,0.0,0.0,57,0.00,,,0.00,Wunderground v.1.15,2013-08-31 04:00:00,
2013-08-30 23:01:00,86.4,69.4,29.31,SW,222,0.0,6.0,57,0.00,,,0.00,Wunderground v.1.15,2013-08-31 04:01:00,
2013-08-30 23:02:00,86.4,69.4,29.31,South,190,1.0,6.0,57,0.00,,,0.00,Wunderground v.1.15,2013-08-31 04:02:00,
2013-08-30 23:05:00,86.3,69.3,29.31,SW,220,1.0,6.0,57,0.00,,,0.00,Wunderground v.1.15,2013-08-31 04:05:00,
2013-08-30 23:08:00,86.5,-99.9,29.31,SW,222,1.0,6.0,255,0.00,,,0.00,Wunderground v.1.15,2013-08-31 04:08:00,
2013-08-30 23:13:00,86.2,69.2,29.31,SSW,201,1.0,6.0,57,0.00,,,0.00,Wunderground v.1.15,2013-08-31 04:13:00,
2013-08-30 23:14:00,86.2,69.2,29.31,SW,217,1.0,6.0,57,0.00,,,0.00,Wunderground v.1.15,2013-08-31 04:14:00,
2013-08-30 23:19:00,86.1,69.1,29.31,South,184,1.0,6.0,57,0.00,,,0.00,Wunderground v.1.15,2013-08-31 04:19:00,
2013-08-30 23:24:00,85.9,68.9,29.31,SSW,204,1.0,2.0,57,0.00,,,0.00,Wunderground v.1.15,2013-08-31 04:24:00,
2013-08-30 23:29:00,85.8,69.3,29.31,SW,219,1.0,2.0,58,0.00,,,0.00,Wunderground v.1.15,2013-08-31 04:29:00,
2013-08-30 23:35:00,85.6,69.1,29.31,SSW,207,1.0,3.0,58,0.00,,,0.00,Wunderground v.1.15,2013-08-31 04:35:00,
2013-08-30 23:40:00,85.4,68.9,29.31,SW,218,1.0,4.0,58,0.00,,,0.00,Wunderground v.1.15,2013-08-31 04:40:00,
2013-08-30 23:46:00,85.3,69.3,29.31,SSW,196,1.0,5.0,59,0.00,,,0.00,Wunderground v.1.15,2013-08-31 04:46:00,
2013-08-30 23:48:00,85.2,69.3,29.31,SW,219,1.0,5.0,59,0.00,,,0.00,Wunderground v.1.15,2013-08-31 04:48:00,
2013-08-30 23:53:00,85.0,69.1,29.31,SSW,211,1.0,3.0,59,0.00,,,0.00,Wunderground v.1.15,2013-08-31 04:53:00,
2013-08-30 23:59:00,84.8,69.4,29.31,SSW,209,0.0,3.0,60,0.00,,,0.00,Wunderground v.1.15,2013-08-31 04:59:00,